PWSweather.com
Personal Weather Stations
Station Observations

PoschiavoCH

Lat: 46.31962499999999, Lon: 10.066551000000004

Elevation: 3517

Station Type: WH 1080

http://www.meteoposchiavo.com

High Low Average
Temperature 59.0°F15.0°C 32.0°F0.0°C 46.0°F7.8°C
Dew Point 26.6°F-3.0°C 18.2°F-7.7°C 21.9°F-5.6°C
Winds 3.5 mph 5.6 kmh Calm Calm Calm SWCalm SW
Wind Gusts 3.5 mph5.6 kmh -- 1.0 mph1.6 kmh
Humidity 63% 26% 40%
Pressure 26.67 in903.2 mb 26.51 in897.7 mb -
Precipitation 0.00 in0.0 mm - -
Hour Temp Dew Point Humidity Winds Wind Gusts Pressure Precip Precip Rate Daily Precip Total
12:00 AM 47.0°F8.3°C 21.4°F-5.9°C 36% Calm Calm -- 26.51 in897.7 mb - 0.00 in0.0 mm 0.00 in0.0 mm
12:10 AM 47.0°F8.3°C 21.4°F-5.9°C 36% Calm Calm -- 26.51 in897.7 mb - 0.00 in0.0 mm 0.00 in0.0 mm
12:15 AM 47.0°F8.3°C 21.4°F-5.9°C 36% Calm Calm -- 26.51 in897.7 mb - 0.00 in0.0 mm 0.00 in0.0 mm
12:20 AM 47.0°F8.3°C 21.4°F-5.9°C 36% Calm Calm -- 26.51 in897.7 mb - 0.00 in0.0 mm 0.00 in0.0 mm
12:25 AM 47.0°F8.3°C 21.4°F-5.9°C 36% Calm Calm -- 26.51 in897.7 mb - 0.00 in0.0 mm 0.00 in0.0 mm
12:30 AM 47.0°F8.3°C 21.4°F-5.9°C 36% Calm Calm -- 26.51 in897.7 mb - 0.00 in0.0 mm 0.00 in0.0 mm
12:35 AM 47.0°F8.3°C 21.4°F-5.9°C 36% Calm Calm -- 26.51 in897.7 mb - 0.00 in0.0 mm 0.00 in0.0 mm
12:40 AM 47.0°F8.3°C 21.4°F-5.9°C 36% Calm Calm -- 26.51 in897.7 mb - 0.00 in0.0 mm 0.00 in0.0 mm
12:45 AM 47.0°F8.3°C 21.4°F-5.9°C 36% Calm Calm -- 26.51 in897.7 mb - 0.00 in0.0 mm 0.00 in0.0 mm
12:50 AM 47.0°F8.3°C 21.4°F-5.9°C 36% Calm Calm -- 26.51 in897.7 mb - 0.00 in0.0 mm 0.00 in0.0 mm
12:55 AM 47.0°F8.3°C 21.4°F-5.9°C 36% Calm Calm -- 26.51 in897.7 mb - 0.00 in0.0 mm 0.00 in0.0 mm
01:00 AM 47.0°F8.3°C 21.4°F-5.9°C 36% Calm Calm -- 26.51 in897.7 mb - 0.00 in0.0 mm 0.00 in0.0 mm
01:10 AM 36.0°F2.2°C 18.7°F-7.4°C 49% Calm Calm -- 26.63 in901.8 mb - 0.00 in0.0 mm 0.00 in0.0 mm
01:15 AM 38.0°F3.3°C 20.0°F-6.7°C 48% Calm Calm -- 26.62 in901.5 mb - 0.00 in0.0 mm 0.00 in0.0 mm
01:20 AM 37.0°F2.8°C 19.6°F-6.9°C 49% Calm Calm -- 26.62 in901.5 mb - 0.00 in0.0 mm 0.00 in0.0 mm
01:25 AM 36.0°F2.2°C 19.1°F-7.2°C 50% Calm Calm -- 26.62 in901.5 mb - 0.00 in0.0 mm 0.00 in0.0 mm
01:30 AM 37.0°F2.8°C 20.1°F-6.6°C 50% Calm Calm -- 26.63 in901.8 mb - 0.00 in0.0 mm 0.00 in0.0 mm
01:35 AM 36.0°F2.2°C 19.6°F-6.9°C 51% Calm Calm -- 26.63 in901.8 mb - 0.00 in0.0 mm 0.00 in0.0 mm
01:40 AM 36.0°F2.2°C 18.7°F-7.4°C 49% Calm Calm -- 26.64 in902.1 mb - 0.00 in0.0 mm 0.00 in0.0 mm
01:45 AM 37.0°F2.8°C 19.6°F-6.9°C 49% Calm Calm -- 26.64 in902.1 mb - 0.00 in0.0 mm 0.00 in0.0 mm
01:50 AM 36.0°F2.2°C 19.1°F-7.2°C 50% Calm Calm 1.2 mph1.9 kmh 26.63 in901.8 mb - 0.00 in0.0 mm 0.00 in0.0 mm
01:55 AM 36.0°F2.2°C 19.6°F-6.9°C 51% Calm Calm -- 26.64 in902.1 mb - 0.00 in0.0 mm 0.00 in0.0 mm
02:00 AM 36.0°F2.2°C 18.2°F-7.7°C 48% Calm Calm -- 26.64 in902.1 mb - 0.00 in0.0 mm 0.00 in0.0 mm
02:10 AM 37.0°F2.8°C 18.6°F-7.4°C 47% Calm Calm -- 26.64 in902.1 mb - 0.00 in0.0 mm 0.00 in0.0 mm
02:15 AM 37.0°F2.8°C 19.6°F-6.9°C 49% Calm Calm -- 26.64 in902.1 mb - 0.00 in0.0 mm 0.00 in0.0 mm
02:20 AM 37.0°F2.8°C 18.6°F-7.4°C 47% Calm Calm -- 26.64 in902.1 mb - 0.00 in0.0 mm 0.00 in0.0 mm
02:25 AM 37.0°F2.8°C 21.0°F-6.1°C 52% Calm Calm -- 26.64 in902.1 mb - 0.00 in0.0 mm 0.00 in0.0 mm
02:30 AM 36.0°F2.2°C 19.6°F-6.9°C 51% Calm Calm -- 26.64 in902.1 mb - 0.00 in0.0 mm 0.00 in0.0 mm
02:35 AM 36.0°F2.2°C 19.6°F-6.9°C 51% Calm Calm -- 26.64 in902.1 mb - 0.00 in0.0 mm 0.00 in0.0 mm
02:40 AM 37.0°F2.8°C 19.1°F-7.2°C 48% Calm Calm -- 26.64 in902.1 mb - 0.00 in0.0 mm 0.00 in0.0 mm
02:45 AM 37.0°F2.8°C 20.1°F-6.6°C 50% Calm Calm -- 26.64 in902.1 mb - 0.00 in0.0 mm 0.00 in0.0 mm
02:50 AM 37.0°F2.8°C 19.1°F-7.2°C 48% Calm Calm -- 26.64 in902.1 mb - 0.00 in0.0 mm 0.00 in0.0 mm
02:55 AM 36.0°F2.2°C 19.6°F-6.9°C 51% Calm Calm -- 26.64 in902.1 mb - 0.00 in0.0 mm 0.00 in0.0 mm
03:00 AM 37.0°F2.8°C 20.1°F-6.6°C 50% Calm Calm 1.2 mph1.9 kmh 26.64 in902.1 mb - 0.00 in0.0 mm 0.00 in0.0 mm
03:10 AM 37.0°F2.8°C 19.1°F-7.2°C 48% Calm Calm -- 26.65 in902.5 mb - 0.00 in0.0 mm 0.00 in0.0 mm
03:15 AM 37.0°F2.8°C 19.6°F-6.9°C 49% Calm Calm -- 26.65 in902.5 mb - 0.00 in0.0 mm 0.00 in0.0 mm
03:20 AM 36.0°F2.2°C 20.5°F-6.4°C 53% Calm Calm -- 26.65 in902.5 mb - 0.00 in0.0 mm 0.00 in0.0 mm
03:25 AM 36.0°F2.2°C 19.6°F-6.9°C 51% Calm Calm -- 26.65 in902.5 mb - 0.00 in0.0 mm 0.00 in0.0 mm
03:30 AM 35.0°F1.7°C 19.6°F-6.9°C 53% Calm Calm -- 26.65 in902.5 mb - 0.00 in0.0 mm 0.00 in0.0 mm
03:35 AM 35.0°F1.7°C 19.1°F-7.2°C 52% Calm Calm -- 26.65 in902.5 mb - 0.00 in0.0 mm 0.00 in0.0 mm
03:40 AM 35.0°F1.7°C 19.1°F-7.2°C 52% Calm Calm -- 26.65 in902.5 mb - 0.00 in0.0 mm 0.00 in0.0 mm
03:45 AM 34.0°F1.1°C 19.5°F-6.9°C 55% Calm Calm -- 26.65 in902.5 mb - 0.00 in0.0 mm 0.00 in0.0 mm
03:50 AM 34.0°F1.1°C 19.5°F-6.9°C 55% Calm Calm -- 26.65 in902.5 mb - 0.00 in0.0 mm 0.00 in0.0 mm
03:55 AM 34.0°F1.1°C 19.1°F-7.2°C 54% Calm Calm -- 26.65 in902.5 mb - 0.00 in0.0 mm 0.00 in0.0 mm
04:00 AM 34.0°F1.1°C 19.5°F-6.9°C 55% Calm Calm -- 26.65 in902.5 mb - 0.00 in0.0 mm 0.00 in0.0 mm
04:10 AM 34.0°F1.1°C 19.9°F-6.7°C 56% Calm Calm -- 26.65 in902.5 mb - 0.00 in0.0 mm 0.00 in0.0 mm
04:15 AM 35.0°F1.7°C 20.0°F-6.7°C 54% Calm Calm -- 26.65 in902.5 mb - 0.00 in0.0 mm 0.00 in0.0 mm
04:20 AM 35.0°F1.7°C 20.0°F-6.7°C 54% Calm Calm -- 26.64 in902.1 mb - 0.00 in0.0 mm 0.00 in0.0 mm
04:25 AM 34.0°F1.1°C 20.8°F-6.2°C 58% Calm Calm -- 26.65 in902.5 mb - 0.00 in0.0 mm 0.00 in0.0 mm
04:30 AM 33.0°F0.6°C 19.8°F-6.8°C 58% Calm Calm -- 26.65 in902.5 mb - 0.00 in0.0 mm 0.00 in0.0 mm
04:35 AM 33.0°F0.6°C 20.6°F-6.3°C 60% Calm Calm -- 26.65 in902.5 mb - 0.00 in0.0 mm 0.00 in0.0 mm
04:40 AM 33.0°F0.6°C 20.2°F-6.6°C 59% Calm Calm -- 26.65 in902.5 mb - 0.00 in0.0 mm 0.00 in0.0 mm
04:45 AM 33.0°F0.6°C 19.8°F-6.8°C 58% Calm Calm -- 26.66 in902.8 mb - 0.00 in0.0 mm 0.00 in0.0 mm
04:50 AM 33.0°F0.6°C 20.2°F-6.6°C 59% Calm Calm -- 26.65 in902.5 mb - 0.00 in0.0 mm 0.00 in0.0 mm
04:55 AM 33.0°F0.6°C 20.2°F-6.6°C 59% Calm Calm -- 26.65 in902.5 mb - 0.00 in0.0 mm 0.00 in0.0 mm
05:00 AM 33.0°F0.6°C 20.2°F-6.6°C 59% Calm Calm -- 26.65 in902.5 mb - 0.00 in0.0 mm 0.00 in0.0 mm
05:10 AM 33.0°F0.6°C 19.8°F-6.8°C 58% Calm Calm -- 26.65 in902.5 mb - 0.00 in0.0 mm 0.00 in0.0 mm
05:15 AM 33.0°F0.6°C 20.2°F-6.6°C 59% Calm Calm -- 26.65 in902.5 mb - 0.00 in0.0 mm 0.00 in0.0 mm
05:20 AM 32.0°F0.0°C 19.7°F-6.8°C 60% Calm Calm -- 26.65 in902.5 mb - 0.00 in0.0 mm 0.00 in0.0 mm
05:25 AM 33.0°F0.6°C 19.4°F-7.0°C 57% Calm Calm -- 26.65 in902.5 mb - 0.00 in0.0 mm 0.00 in0.0 mm
05:30 AM 33.0°F0.6°C 19.4°F-7.0°C 57% Calm Calm -- 26.65 in902.5 mb - 0.00 in0.0 mm 0.00 in0.0 mm
05:35 AM 33.0°F0.6°C 20.2°F-6.6°C 59% Calm Calm -- 26.66 in902.8 mb - 0.00 in0.0 mm 0.00 in0.0 mm
05:40 AM 32.0°F0.0°C 19.3°F-7.1°C 59% Calm Calm -- 26.65 in902.5 mb - 0.00 in0.0 mm 0.00 in0.0 mm
05:45 AM 32.0°F0.0°C 19.7°F-6.8°C 60% Calm Calm -- 26.66 in902.8 mb - 0.00 in0.0 mm 0.00 in0.0 mm
05:50 AM 32.0°F0.0°C 19.3°F-7.1°C 59% Calm Calm -- 26.65 in902.5 mb - 0.00 in0.0 mm 0.00 in0.0 mm
05:55 AM 33.0°F0.6°C 20.6°F-6.3°C 60% Calm Calm -- 26.66 in902.8 mb - 0.00 in0.0 mm 0.00 in0.0 mm
06:00 AM 32.0°F0.0°C 20.1°F-6.6°C 61% Calm Calm -- 26.66 in902.8 mb - 0.00 in0.0 mm 0.00 in0.0 mm
06:10 AM 32.0°F0.0°C 19.3°F-7.1°C 59% Calm Calm -- 26.66 in902.8 mb - 0.00 in0.0 mm 0.00 in0.0 mm
06:15 AM 33.0°F0.6°C 20.2°F-6.6°C 59% Calm Calm -- 26.66 in902.8 mb - 0.00 in0.0 mm 0.00 in0.0 mm
06:20 AM 32.0°F0.0°C 20.4°F-6.4°C 62% Calm Calm -- 26.66 in902.8 mb - 0.00 in0.0 mm 0.00 in0.0 mm
06:25 AM 32.0°F0.0°C 20.1°F-6.6°C 61% Calm Calm -- 26.66 in902.8 mb - 0.00 in0.0 mm 0.00 in0.0 mm
06:30 AM 33.0°F0.6°C 19.8°F-6.8°C 58% Calm Calm -- 26.66 in902.8 mb - 0.00 in0.0 mm 0.00 in0.0 mm
06:35 AM 32.2°F0.1°C 19.5°F-6.9°C 59% Calm Calm -- 26.66 in902.8 mb - 0.00 in0.0 mm 0.00 in0.0 mm
06:40 AM 32.0°F0.0°C 20.1°F-6.6°C 61% Calm Calm -- 26.65 in902.5 mb - 0.00 in0.0 mm 0.00 in0.0 mm
06:45 AM 33.0°F0.6°C 19.4°F-7.0°C 57% Calm Calm -- 26.65 in902.5 mb - 0.00 in0.0 mm 0.00 in0.0 mm
06:50 AM 32.0°F0.0°C 20.1°F-6.6°C 61% Calm Calm -- 26.65 in902.5 mb - 0.00 in0.0 mm 0.00 in0.0 mm
06:55 AM 32.0°F0.0°C 19.7°F-6.8°C 60% Calm Calm -- 26.65 in902.5 mb - 0.00 in0.0 mm 0.00 in0.0 mm
07:00 AM 33.0°F0.6°C 20.2°F-6.6°C 59% Calm Calm -- 26.66 in902.8 mb - 0.00 in0.0 mm 0.00 in0.0 mm
07:10 AM 32.0°F0.0°C 19.3°F-7.1°C 59% Calm Calm -- 26.67 in903.2 mb - 0.00 in0.0 mm 0.00 in0.0 mm
07:15 AM 32.0°F0.0°C 19.3°F-7.1°C 59% Calm Calm -- 26.66 in902.8 mb - 0.00 in0.0 mm 0.00 in0.0 mm
07:20 AM 33.0°F0.6°C 20.6°F-6.3°C 60% Calm Calm -- 26.67 in903.2 mb - 0.00 in0.0 mm 0.00 in0.0 mm
07:25 AM 32.0°F0.0°C 19.7°F-6.8°C 60% Calm Calm -- 26.67 in903.2 mb - 0.00 in0.0 mm 0.00 in0.0 mm
07:30 AM 32.0°F0.0°C 19.7°F-6.8°C 60% Calm Calm -- 26.67 in903.2 mb - 0.00 in0.0 mm 0.00 in0.0 mm
07:35 AM 32.0°F0.0°C 19.7°F-6.8°C 60% Calm Calm -- 26.67 in903.2 mb - 0.00 in0.0 mm 0.00 in0.0 mm
07:40 AM 33.2°F0.7°C 19.2°F-7.1°C 56% 1.2 mph NNE1.9 kmh NNE 1.2 mph1.9 kmh 26.66 in902.8 mb - 0.00 in0.0 mm 0.00 in0.0 mm
07:45 AM 34.0°F1.1°C 20.8°F-6.2°C 58% Calm Calm -- 26.67 in903.2 mb - 0.00 in0.0 mm 0.00 in0.0 mm
07:50 AM 33.0°F0.6°C 21.4°F-5.9°C 62% Calm Calm -- 26.67 in903.2 mb - 0.00 in0.0 mm 0.00 in0.0 mm
07:55 AM 33.0°F0.6°C 21.4°F-5.9°C 62% Calm Calm -- 26.67 in903.2 mb - 0.00 in0.0 mm 0.00 in0.0 mm
08:00 AM 32.0°F0.0°C 20.8°F-6.2°C 63% Calm Calm -- 26.67 in903.2 mb - 0.00 in0.0 mm 0.00 in0.0 mm
08:10 AM 32.0°F0.0°C 20.1°F-6.6°C 61% Calm Calm -- 26.67 in903.2 mb - 0.00 in0.0 mm 0.00 in0.0 mm
08:15 AM 33.0°F0.6°C 20.2°F-6.6°C 59% Calm Calm -- 26.67 in903.2 mb - 0.00 in0.0 mm 0.00 in0.0 mm
08:20 AM 34.0°F1.1°C 21.2°F-6.0°C 59% Calm Calm -- 26.67 in903.2 mb - 0.00 in0.0 mm 0.00 in0.0 mm
08:25 AM 33.0°F0.6°C 21.0°F-6.1°C 61% Calm Calm -- 26.67 in903.2 mb - 0.00 in0.0 mm 0.00 in0.0 mm
08:30 AM 33.5°F0.8°C 20.6°F-6.3°C 59% Calm Calm -- 26.67 in903.2 mb - 0.00 in0.0 mm 0.00 in0.0 mm
08:35 AM 34.0°F1.1°C 20.3°F-6.5°C 57% Calm Calm -- 26.67 in903.2 mb - 0.00 in0.0 mm 0.00 in0.0 mm
08:40 AM 34.0°F1.1°C 21.2°F-6.0°C 59% Calm Calm -- 26.66 in902.8 mb - 0.00 in0.0 mm 0.00 in0.0 mm
08:45 AM 35.0°F1.7°C 21.7°F-5.7°C 58% Calm Calm -- 26.66 in902.8 mb - 0.00 in0.0 mm 0.00 in0.0 mm
08:50 AM 35.1°F1.7°C 22.6°F-5.2°C 60% Calm Calm -- 26.67 in903.2 mb - 0.00 in0.0 mm 0.00 in0.0 mm
08:55 AM 36.5°F2.5°C 21.8°F-5.7°C 55% Calm Calm -- 26.66 in902.8 mb - 0.00 in0.0 mm 0.00 in0.0 mm
09:00 AM 37.0°F2.8°C 23.2°F-4.9°C 57% Calm Calm -- 26.65 in902.5 mb - 0.00 in0.0 mm 0.00 in0.0 mm
09:10 AM 39.0°F3.9°C 20.5°F-6.4°C 47% 1.2 mph NW1.9 kmh NW 2.3 mph3.7 kmh 26.66 in902.8 mb - 0.00 in0.0 mm 0.00 in0.0 mm
09:15 AM 41.0°F5.0°C 21.3°F-5.9°C 45% Calm Calm -- 26.65 in902.5 mb - 0.00 in0.0 mm 0.00 in0.0 mm
09:20 AM 41.0°F5.0°C 23.3°F-4.8°C 49% Calm Calm -- 26.64 in902.1 mb - 0.00 in0.0 mm 0.00 in0.0 mm
09:25 AM 41.0°F5.0°C 23.8°F-4.6°C 50% Calm Calm -- 26.65 in902.5 mb - 0.00 in0.0 mm 0.00 in0.0 mm
09:30 AM 41.0°F5.0°C 21.3°F-5.9°C 45% Calm Calm -- 26.65 in902.5 mb - 0.00 in0.0 mm 0.00 in0.0 mm
09:35 AM 42.0°F5.6°C 23.2°F-4.9°C 47% Calm Calm -- 26.65 in902.5 mb - 0.00 in0.0 mm 0.00 in0.0 mm
09:40 AM 42.1°F5.6°C 22.8°F-5.1°C 46% Calm Calm -- 26.64 in902.1 mb - 0.00 in0.0 mm 0.00 in0.0 mm
09:45 AM 43.0°F6.1°C 24.6°F-4.1°C 48% Calm Calm -- 26.64 in902.1 mb - 0.00 in0.0 mm 0.00 in0.0 mm
09:50 AM 43.0°F6.1°C 24.1°F-4.4°C 47% Calm Calm -- 26.64 in902.1 mb - 0.00 in0.0 mm 0.00 in0.0 mm
09:55 AM 42.0°F5.6°C 22.7°F-5.2°C 46% Calm Calm -- 26.64 in902.1 mb - 0.00 in0.0 mm 0.00 in0.0 mm
10:00 AM 43.0°F6.1°C 23.1°F-4.9°C 45% Calm Calm -- 26.64 in902.1 mb - 0.00 in0.0 mm 0.00 in0.0 mm
10:10 AM 44.0°F6.7°C 21.8°F-5.7°C 41% Calm Calm -- 26.64 in902.1 mb - 0.00 in0.0 mm 0.00 in0.0 mm
10:15 AM 45.0°F7.2°C 20.3°F-6.5°C 37% Calm Calm -- 26.64 in902.1 mb - 0.00 in0.0 mm 0.00 in0.0 mm
10:20 AM 46.0°F7.8°C 19.8°F-6.8°C 35% Calm Calm -- 26.64 in902.1 mb - 0.00 in0.0 mm 0.00 in0.0 mm
10:25 AM 47.0°F8.3°C 19.3°F-7.1°C 33% Calm Calm 1.2 mph1.9 kmh 26.64 in902.1 mb - 0.00 in0.0 mm 0.00 in0.0 mm
10:30 AM 47.0°F8.3°C 18.6°F-7.4°C 32% Calm Calm -- 26.64 in902.1 mb - 0.00 in0.0 mm 0.00 in0.0 mm
10:35 AM 48.0°F8.9°C 18.8°F-7.3°C 31% Calm Calm -- 26.63 in901.8 mb - 0.00 in0.0 mm 0.00 in0.0 mm
10:40 AM 49.0°F9.4°C 19.6°F-6.9°C 31% Calm Calm -- 26.63 in901.8 mb - 0.00 in0.0 mm 0.00 in0.0 mm
10:45 AM 49.0°F9.4°C 20.4°F-6.4°C 32% 1.2 mph NW1.9 kmh NW 1.2 mph1.9 kmh 26.63 in901.8 mb - 0.00 in0.0 mm 0.00 in0.0 mm
10:50 AM 49.0°F9.4°C 21.1°F-6.1°C 33% 1.2 mph NW1.9 kmh NW 1.2 mph1.9 kmh 26.63 in901.8 mb - 0.00 in0.0 mm 0.00 in0.0 mm
10:55 AM 50.0°F10.0°C 22.0°F-5.6°C 33% 2.3 mph W3.7 kmh W 3.5 mph5.6 kmh 26.62 in901.5 mb - 0.00 in0.0 mm 0.00 in0.0 mm
11:00 AM 50.5°F10.3°C 20.2°F-6.6°C 30% 1.2 mph NW1.9 kmh NW 1.2 mph1.9 kmh 26.62 in901.5 mb - 0.00 in0.0 mm 0.00 in0.0 mm
11:10 AM 51.0°F10.6°C 19.8°F-6.8°C 29% Calm Calm 1.2 mph1.9 kmh 26.62 in901.5 mb - 0.00 in0.0 mm 0.00 in0.0 mm
11:15 AM 53.0°F11.7°C 19.9°F-6.7°C 27% Calm Calm -- 26.61 in901.1 mb - 0.00 in0.0 mm 0.00 in0.0 mm
11:20 AM 55.0°F12.8°C 20.7°F-6.3°C 26% Calm Calm 1.2 mph1.9 kmh 26.61 in901.1 mb - 0.00 in0.0 mm 0.00 in0.0 mm
11:25 AM 56.0°F13.3°C 22.4°F-5.3°C 27% 1.2 mph NW1.9 kmh NW 1.2 mph1.9 kmh 26.61 in901.1 mb - 0.00 in0.0 mm 0.00 in0.0 mm
11:30 AM 53.0°F11.7°C 21.6°F-5.8°C 29% Calm Calm 1.2 mph1.9 kmh 26.61 in901.1 mb - 0.00 in0.0 mm 0.00 in0.0 mm
11:35 AM 54.0°F12.2°C 21.6°F-5.8°C 28% Calm Calm -- 26.60 in900.8 mb - 0.00 in0.0 mm 0.00 in0.0 mm
11:40 AM 54.0°F12.2°C 19.8°F-6.8°C 26% 2.3 mph NW3.7 kmh NW 3.5 mph5.6 kmh 26.60 in900.8 mb - 0.00 in0.0 mm 0.00 in0.0 mm
11:45 AM 53.3°F11.8°C 19.3°F-7.1°C 26% 1.2 mph NW1.9 kmh NW 2.3 mph3.7 kmh 26.60 in900.8 mb - 0.00 in0.0 mm 0.00 in0.0 mm
11:50 AM 54.8°F12.7°C 20.5°F-6.4°C 26% Calm Calm 1.2 mph1.9 kmh 26.59 in900.4 mb - 0.00 in0.0 mm 0.00 in0.0 mm
11:55 AM 56.0°F13.3°C 21.6°F-5.8°C 26% 2.3 mph WNW3.7 kmh WNW 2.3 mph3.7 kmh 26.59 in900.4 mb - 0.00 in0.0 mm 0.00 in0.0 mm
12:00 PM 56.0°F13.3°C 24.2°F-4.3°C 29% 2.3 mph NW3.7 kmh NW 3.5 mph5.6 kmh 26.59 in900.4 mb - 0.00 in0.0 mm 0.00 in0.0 mm
12:10 PM 54.5°F12.5°C 21.2°F-6.0°C 27% 1.2 mph NW1.9 kmh NW 3.5 mph5.6 kmh 26.58 in900.1 mb - 0.00 in0.0 mm 0.00 in0.0 mm
12:15 PM 53.9°F12.2°C 20.6°F-6.3°C 27% 1.2 mph NW1.9 kmh NW 2.3 mph3.7 kmh 26.58 in900.1 mb - 0.00 in0.0 mm 0.00 in0.0 mm
12:20 PM 54.0°F12.2°C 20.7°F-6.3°C 27% 3.5 mph WSW5.6 kmh WSW 3.5 mph5.6 kmh 26.58 in900.1 mb - 0.00 in0.0 mm 0.00 in0.0 mm
12:25 PM 55.0°F12.8°C 23.3°F-4.8°C 29% 3.5 mph WSW5.6 kmh WSW 3.5 mph5.6 kmh 26.58 in900.1 mb - 0.00 in0.0 mm 0.00 in0.0 mm
12:30 PM 54.1°F12.3°C 21.7°F-5.7°C 28% 1.2 mph NW1.9 kmh NW 2.3 mph3.7 kmh 26.58 in900.1 mb - 0.00 in0.0 mm 0.00 in0.0 mm
12:35 PM 55.0°F12.8°C 23.3°F-4.8°C 29% 1.2 mph W1.9 kmh W 3.5 mph5.6 kmh 26.57 in899.8 mb - 0.00 in0.0 mm 0.00 in0.0 mm
12:40 PM 55.0°F12.8°C 22.4°F-5.3°C 28% 2.3 mph NW3.7 kmh NW 3.5 mph5.6 kmh 26.57 in899.8 mb - 0.00 in0.0 mm 0.00 in0.0 mm
12:45 PM 56.0°F13.3°C 24.2°F-4.3°C 29% 3.5 mph WNW5.6 kmh WNW 3.5 mph5.6 kmh 26.57 in899.8 mb - 0.00 in0.0 mm 0.00 in0.0 mm
12:50 PM 55.0°F12.8°C 24.1°F-4.4°C 30% Calm Calm 1.2 mph1.9 kmh 26.57 in899.8 mb - 0.00 in0.0 mm 0.00 in0.0 mm
12:55 PM 56.0°F13.3°C 22.4°F-5.3°C 27% 2.3 mph NW3.7 kmh NW 2.3 mph3.7 kmh 26.57 in899.8 mb - 0.00 in0.0 mm 0.00 in0.0 mm
01:00 PM 56.0°F13.3°C 25.0°F-3.9°C 30% 3.5 mph WSW5.6 kmh WSW 3.5 mph5.6 kmh 26.56 in899.4 mb - 0.00 in0.0 mm 0.00 in0.0 mm
01:10 PM 55.0°F12.8°C 24.9°F-3.9°C 31% 3.5 mph W5.6 kmh W 3.5 mph5.6 kmh 26.56 in899.4 mb - 0.00 in0.0 mm 0.00 in0.0 mm
01:15 PM 55.0°F12.8°C 24.1°F-4.4°C 30% 3.5 mph W5.6 kmh W 3.5 mph5.6 kmh 26.56 in899.4 mb - 0.00 in0.0 mm 0.00 in0.0 mm
01:20 PM 54.0°F12.2°C 24.8°F-4.0°C 32% 3.5 mph W5.6 kmh W 3.5 mph5.6 kmh 26.56 in899.4 mb - 0.00 in0.0 mm 0.00 in0.0 mm
01:25 PM 55.0°F12.8°C 22.4°F-5.3°C 28% 2.3 mph WSW3.7 kmh WSW 3.5 mph5.6 kmh 26.55 in899.1 mb - 0.00 in0.0 mm 0.00 in0.0 mm
01:30 PM 56.0°F13.3°C 23.3°F-4.8°C 28% 1.2 mph WNW1.9 kmh WNW 2.3 mph3.7 kmh 26.55 in899.1 mb - 0.00 in0.0 mm 0.00 in0.0 mm
01:35 PM 56.0°F13.3°C 24.2°F-4.3°C 29% 1.2 mph NW1.9 kmh NW 2.3 mph3.7 kmh 26.55 in899.1 mb - 0.00 in0.0 mm 0.00 in0.0 mm
01:40 PM 57.0°F13.9°C 26.6°F-3.0°C 31% 2.3 mph W3.7 kmh W 3.5 mph5.6 kmh 26.55 in899.1 mb - 0.00 in0.0 mm 0.00 in0.0 mm
01:45 PM 57.0°F13.9°C 25.0°F-3.9°C 29% 2.3 mph WNW3.7 kmh WNW 3.5 mph5.6 kmh 26.55 in899.1 mb - 0.00 in0.0 mm 0.00 in0.0 mm
01:50 PM 57.0°F13.9°C 25.0°F-3.9°C 29% 2.3 mph NW3.7 kmh NW 3.5 mph5.6 kmh 26.55 in899.1 mb - 0.00 in0.0 mm 0.00 in0.0 mm
01:55 PM 57.0°F13.9°C 25.0°F-3.9°C 29% 3.5 mph W5.6 kmh W 3.5 mph5.6 kmh 26.55 in899.1 mb - 0.00 in0.0 mm 0.00 in0.0 mm
02:00 PM 56.0°F13.3°C 24.2°F-4.3°C 29% 1.2 mph NW1.9 kmh NW 1.2 mph1.9 kmh 26.54 in898.7 mb - 0.00 in0.0 mm 0.00 in0.0 mm
02:10 PM 56.0°F13.3°C 25.0°F-3.9°C 30% 2.3 mph WNW3.7 kmh WNW 3.5 mph5.6 kmh 26.54 in898.7 mb - 0.00 in0.0 mm 0.00 in0.0 mm
02:15 PM 55.0°F12.8°C 24.1°F-4.4°C 30% 2.3 mph NW3.7 kmh NW 2.3 mph3.7 kmh 26.54 in898.7 mb - 0.00 in0.0 mm 0.00 in0.0 mm
02:20 PM 56.0°F13.3°C 24.2°F-4.3°C 29% 2.3 mph W3.7 kmh W 2.3 mph3.7 kmh 26.54 in898.7 mb - 0.00 in0.0 mm 0.00 in0.0 mm
02:25 PM 55.0°F12.8°C 22.4°F-5.3°C 28% 2.3 mph WSW3.7 kmh WSW 3.5 mph5.6 kmh 26.54 in898.7 mb - 0.00 in0.0 mm 0.00 in0.0 mm
02:30 PM 55.4°F13.0°C 22.8°F-5.1°C 28% 1.2 mph WNW1.9 kmh WNW 2.3 mph3.7 kmh 26.54 in898.7 mb - 0.00 in0.0 mm 0.00 in0.0 mm
02:35 PM 57.0°F13.9°C 24.2°F-4.3°C 28% 2.3 mph W3.7 kmh W 3.5 mph5.6 kmh 26.54 in898.7 mb - 0.00 in0.0 mm 0.00 in0.0 mm
02:40 PM 57.0°F13.9°C 23.3°F-4.8°C 27% 2.3 mph W3.7 kmh W 2.3 mph3.7 kmh 26.54 in898.7 mb - 0.00 in0.0 mm 0.00 in0.0 mm
02:45 PM 57.0°F13.9°C 24.2°F-4.3°C 28% Calm Calm -- 26.53 in898.4 mb - 0.00 in0.0 mm 0.00 in0.0 mm
02:50 PM 57.0°F13.9°C 25.0°F-3.9°C 29% 1.2 mph NW1.9 kmh NW 1.2 mph1.9 kmh 26.53 in898.4 mb - 0.00 in0.0 mm 0.00 in0.0 mm
02:55 PM 58.0°F14.4°C 23.2°F-4.9°C 26% Calm Calm 1.2 mph1.9 kmh 26.53 in898.4 mb - 0.00 in0.0 mm 0.00 in0.0 mm
03:00 PM 57.1°F13.9°C 23.4°F-4.8°C 27% 1.2 mph NW1.9 kmh NW 3.5 mph5.6 kmh 26.53 in898.4 mb - 0.00 in0.0 mm 0.00 in0.0 mm
03:10 PM 57.0°F13.9°C 24.2°F-4.3°C 28% Calm Calm 1.2 mph1.9 kmh 26.52 in898.1 mb - 0.00 in0.0 mm 0.00 in0.0 mm
03:15 PM 58.2°F14.6°C 24.3°F-4.3°C 27% Calm Calm 1.2 mph1.9 kmh 26.52 in898.1 mb - 0.00 in0.0 mm 0.00 in0.0 mm
03:20 PM 59.0°F15.0°C 24.1°F-4.4°C 26% 1.2 mph NW1.9 kmh NW 2.3 mph3.7 kmh 26.52 in898.1 mb - 0.00 in0.0 mm 0.00 in0.0 mm
03:25 PM 59.0°F15.0°C 24.1°F-4.4°C 26% 3.5 mph WSW5.6 kmh WSW 3.5 mph5.6 kmh 26.51 in897.7 mb - 0.00 in0.0 mm 0.00 in0.0 mm
03:30 PM 59.0°F15.0°C 25.9°F-3.4°C 28% Calm Calm 1.2 mph1.9 kmh 26.51 in897.7 mb - 0.00 in0.0 mm 0.00 in0.0 mm
03:35 PM 59.0°F15.0°C 25.0°F-3.9°C 27% 1.2 mph WNW1.9 kmh WNW 2.3 mph3.7 kmh 26.51 in897.7 mb - 0.00 in0.0 mm 0.00 in0.0 mm
03:40 PM 57.3°F14.1°C 26.1°F-3.3°C 30% 1.2 mph WNW1.9 kmh WNW 2.3 mph3.7 kmh 26.51 in897.7 mb - 0.00 in0.0 mm 0.00 in0.0 mm
03:45 PM 57.0°F13.9°C 22.4°F-5.3°C 26% Calm Calm 2.3 mph3.7 kmh 26.51 in897.7 mb - 0.00 in0.0 mm 0.00 in0.0 mm
03:50 PM 56.0°F13.3°C 22.4°F-5.3°C 27% Calm Calm -- 26.51 in897.7 mb - 0.00 in0.0 mm 0.00 in0.0 mm
03:55 PM 56.0°F13.3°C 26.5°F-3.1°C 32% 1.2 mph NW1.9 kmh NW 1.2 mph1.9 kmh 26.52 in898.1 mb - 0.00 in0.0 mm 0.00 in0.0 mm
04:00 PM 55.0°F12.8°C 23.3°F-4.8°C 29% Calm Calm 1.2 mph1.9 kmh 26.53 in898.4 mb - 0.00 in0.0 mm 0.00 in0.0 mm
04:10 PM 54.0°F12.2°C 24.0°F-4.4°C 31% Calm Calm 2.3 mph3.7 kmh 26.53 in898.4 mb - 0.00 in0.0 mm 0.00 in0.0 mm
04:15 PM 54.0°F12.2°C 24.8°F-4.0°C 32% Calm Calm 1.2 mph1.9 kmh 26.52 in898.1 mb - 0.00 in0.0 mm 0.00 in0.0 mm
04:20 PM 54.0°F12.2°C 26.2°F-3.2°C 34% 1.2 mph NW1.9 kmh NW 2.3 mph3.7 kmh 26.52 in898.1 mb - 0.00 in0.0 mm 0.00 in0.0 mm
04:25 PM 53.0°F11.7°C 25.3°F-3.7°C 34% 1.2 mph N1.9 kmh N 2.3 mph3.7 kmh 26.52 in898.1 mb - 0.00 in0.0 mm 0.00 in0.0 mm
04:30 PM 52.0°F11.1°C 25.2°F-3.8°C 35% Calm Calm 1.2 mph1.9 kmh 26.53 in898.4 mb - 0.00 in0.0 mm 0.00 in0.0 mm
04:35 PM 52.0°F11.1°C 24.5°F-4.2°C 34% Calm Calm 1.2 mph1.9 kmh 26.52 in898.1 mb - 0.00 in0.0 mm 0.00 in0.0 mm
04:40 PM 52.0°F11.1°C 23.0°F-5.0°C 32% 1.2 mph N1.9 kmh N 2.3 mph3.7 kmh 26.53 in898.4 mb - 0.00 in0.0 mm 0.00 in0.0 mm
04:45 PM 52.0°F11.1°C 23.0°F-5.0°C 32% 1.2 mph NW1.9 kmh NW 1.2 mph1.9 kmh 26.53 in898.4 mb - 0.00 in0.0 mm 0.00 in0.0 mm
04:50 PM 52.0°F11.1°C 23.0°F-5.0°C 32% Calm Calm 1.2 mph1.9 kmh 26.53 in898.4 mb - 0.00 in0.0 mm 0.00 in0.0 mm
04:55 PM 52.0°F11.1°C 23.0°F-5.0°C 32% Calm Calm 1.2 mph1.9 kmh 26.53 in898.4 mb - 0.00 in0.0 mm 0.00 in0.0 mm
05:00 PM 52.0°F11.1°C 23.0°F-5.0°C 32% Calm Calm 1.2 mph1.9 kmh 26.53 in898.4 mb - 0.00 in0.0 mm 0.00 in0.0 mm
05:10 PM 52.0°F11.1°C 23.0°F-5.0°C 32% Calm Calm 1.2 mph1.9 kmh 26.53 in898.4 mb - 0.00 in0.0 mm 0.00 in0.0 mm
05:15 PM 52.0°F11.1°C 23.0°F-5.0°C 32% Calm Calm 1.2 mph1.9 kmh 26.53 in898.4 mb - 0.00 in0.0 mm 0.00 in0.0 mm
05:20 PM 52.0°F11.1°C 23.0°F-5.0°C 32% Calm Calm 1.2 mph1.9 kmh 26.53 in898.4 mb - 0.00 in0.0 mm 0.00 in0.0 mm
05:25 PM 52.0°F11.1°C 23.0°F-5.0°C 32% Calm Calm 1.2 mph1.9 kmh 26.53 in898.4 mb - 0.00 in0.0 mm 0.00 in0.0 mm
05:30 PM 52.0°F11.1°C 23.0°F-5.0°C 32% Calm Calm 1.2 mph1.9 kmh 26.53 in898.4 mb - 0.00 in0.0 mm 0.00 in0.0 mm
05:35 PM 52.0°F11.1°C 23.0°F-5.0°C 32% Calm Calm 1.2 mph1.9 kmh 26.53 in898.4 mb - 0.00 in0.0 mm 0.00 in0.0 mm
05:40 PM 52.0°F11.1°C 23.0°F-5.0°C 32% Calm Calm 1.2 mph1.9 kmh 26.53 in898.4 mb - 0.00 in0.0 mm 0.00 in0.0 mm
05:45 PM 52.0°F11.1°C 23.0°F-5.0°C 32% Calm Calm 1.2 mph1.9 kmh 26.53 in898.4 mb - 0.00 in0.0 mm 0.00 in0.0 mm
05:50 PM 52.0°F11.1°C 23.0°F-5.0°C 32% Calm Calm 1.2 mph1.9 kmh 26.53 in898.4 mb - 0.00 in0.0 mm 0.00 in0.0 mm
05:55 PM 52.0°F11.1°C 23.0°F-5.0°C 32% Calm Calm 1.2 mph1.9 kmh 26.53 in898.4 mb - 0.00 in0.0 mm 0.00 in0.0 mm
06:00 PM 52.0°F11.1°C 23.0°F-5.0°C 32% Calm Calm 1.2 mph1.9 kmh 26.53 in898.4 mb - 0.00 in0.0 mm 0.00 in0.0 mm
06:10 PM 52.0°F11.1°C 23.0°F-5.0°C 32% Calm Calm 1.2 mph1.9 kmh 26.53 in898.4 mb - 0.00 in0.0 mm 0.00 in0.0 mm
06:15 PM 52.0°F11.1°C 23.0°F-5.0°C 32% Calm Calm 1.2 mph1.9 kmh 26.53 in898.4 mb - 0.00 in0.0 mm 0.00 in0.0 mm
06:20 PM 52.0°F11.1°C 23.0°F-5.0°C 32% Calm Calm 1.2 mph1.9 kmh 26.53 in898.4 mb - 0.00 in0.0 mm 0.00 in0.0 mm
06:25 PM 52.0°F11.1°C 23.0°F-5.0°C 32% Calm Calm 1.2 mph1.9 kmh 26.53 in898.4 mb - 0.00 in0.0 mm 0.00 in0.0 mm
06:30 PM 52.0°F11.1°C 23.0°F-5.0°C 32% Calm Calm 1.2 mph1.9 kmh 26.53 in898.4 mb - 0.00 in0.0 mm 0.00 in0.0 mm
06:35 PM 52.0°F11.1°C 23.0°F-5.0°C 32% Calm Calm 1.2 mph1.9 kmh 26.53 in898.4 mb - 0.00 in0.0 mm 0.00 in0.0 mm
06:40 PM 52.0°F11.1°C 23.0°F-5.0°C 32% Calm Calm 1.2 mph1.9 kmh 26.53 in898.4 mb - 0.00 in0.0 mm 0.00 in0.0 mm
06:45 PM 52.0°F11.1°C 23.0°F-5.0°C 32% Calm Calm 1.2 mph1.9 kmh 26.53 in898.4 mb - 0.00 in0.0 mm 0.00 in0.0 mm
06:50 PM 52.0°F11.1°C 23.0°F-5.0°C 32% Calm Calm 1.2 mph1.9 kmh 26.53 in898.4 mb - 0.00 in0.0 mm 0.00 in0.0 mm
06:55 PM 52.0°F11.1°C 23.0°F-5.0°C 32% Calm Calm 1.2 mph1.9 kmh 26.53 in898.4 mb - 0.00 in0.0 mm 0.00 in0.0 mm
07:00 PM 52.0°F11.1°C 23.0°F-5.0°C 32% Calm Calm 1.2 mph1.9 kmh 26.53 in898.4 mb - 0.00 in0.0 mm 0.00 in0.0 mm
07:10 PM 52.0°F11.1°C 23.0°F-5.0°C 32% Calm Calm 1.2 mph1.9 kmh 26.53 in898.4 mb - 0.00 in0.0 mm 0.00 in0.0 mm
07:15 PM 52.0°F11.1°C 23.0°F-5.0°C 32% Calm Calm 1.2 mph1.9 kmh 26.53 in898.4 mb - 0.00 in0.0 mm 0.00 in0.0 mm
07:20 PM 52.0°F11.1°C 23.0°F-5.0°C 32% Calm Calm 1.2 mph1.9 kmh 26.53 in898.4 mb - 0.00 in0.0 mm 0.00 in0.0 mm
07:25 PM 52.0°F11.1°C 23.0°F-5.0°C 32% Calm Calm 1.2 mph1.9 kmh 26.53 in898.4 mb - 0.00 in0.0 mm 0.00 in0.0 mm
07:30 PM 52.0°F11.1°C 23.0°F-5.0°C 32% Calm Calm 1.2 mph1.9 kmh 26.53 in898.4 mb - 0.00 in0.0 mm 0.00 in0.0 mm
07:35 PM 52.0°F11.1°C 23.0°F-5.0°C 32% Calm Calm 1.2 mph1.9 kmh 26.53 in898.4 mb - 0.00 in0.0 mm 0.00 in0.0 mm
07:40 PM 52.0°F11.1°C 23.0°F-5.0°C 32% Calm Calm 1.2 mph1.9 kmh 26.53 in898.4 mb - 0.00 in0.0 mm 0.00 in0.0 mm
07:45 PM 52.0°F11.1°C 23.0°F-5.0°C 32% Calm Calm 1.2 mph1.9 kmh 26.53 in898.4 mb - 0.00 in0.0 mm 0.00 in0.0 mm
07:50 PM 52.0°F11.1°C 23.0°F-5.0°C 32% Calm Calm 1.2 mph1.9 kmh 26.53 in898.4 mb - 0.00 in0.0 mm 0.00 in0.0 mm
07:55 PM 52.0°F11.1°C 23.0°F-5.0°C 32% Calm Calm 1.2 mph1.9 kmh 26.53 in898.4 mb - 0.00 in0.0 mm 0.00 in0.0 mm
08:00 PM 52.0°F11.1°C 23.0°F-5.0°C 32% Calm Calm 1.2 mph1.9 kmh 26.53 in898.4 mb - 0.00 in0.0 mm 0.00 in0.0 mm
08:10 PM 52.0°F11.1°C 23.0°F-5.0°C 32% Calm Calm 1.2 mph1.9 kmh 26.53 in898.4 mb - 0.00 in0.0 mm 0.00 in0.0 mm
08:15 PM 52.0°F11.1°C 23.0°F-5.0°C 32% Calm Calm 1.2 mph1.9 kmh 26.53 in898.4 mb - 0.00 in0.0 mm 0.00 in0.0 mm
08:20 PM 52.0°F11.1°C 23.0°F-5.0°C 32% Calm Calm 1.2 mph1.9 kmh 26.53 in898.4 mb - 0.00 in0.0 mm 0.00 in0.0 mm
08:25 PM 52.0°F11.1°C 23.0°F-5.0°C 32% Calm Calm 1.2 mph1.9 kmh 26.53 in898.4 mb - 0.00 in0.0 mm 0.00 in0.0 mm
08:30 PM 52.0°F11.1°C 23.0°F-5.0°C 32% Calm Calm 1.2 mph1.9 kmh 26.53 in898.4 mb - 0.00 in0.0 mm 0.00 in0.0 mm
08:35 PM 52.0°F11.1°C 23.0°F-5.0°C 32% Calm Calm 1.2 mph1.9 kmh 26.53 in898.4 mb - 0.00 in0.0 mm 0.00 in0.0 mm
08:40 PM 52.0°F11.1°C 23.0°F-5.0°C 32% Calm Calm 1.2 mph1.9 kmh 26.53 in898.4 mb - 0.00 in0.0 mm 0.00 in0.0 mm
08:45 PM 52.0°F11.1°C 23.0°F-5.0°C 32% Calm Calm 1.2 mph1.9 kmh 26.53 in898.4 mb - 0.00 in0.0 mm 0.00 in0.0 mm
08:50 PM 52.0°F11.1°C 23.0°F-5.0°C 32% Calm Calm 1.2 mph1.9 kmh 26.53 in898.4 mb - 0.00 in0.0 mm 0.00 in0.0 mm
08:55 PM 52.0°F11.1°C 23.0°F-5.0°C 32% Calm Calm 1.2 mph1.9 kmh 26.53 in898.4 mb - 0.00 in0.0 mm 0.00 in0.0 mm
09:00 PM 52.0°F11.1°C 23.0°F-5.0°C 32% Calm Calm 1.2 mph1.9 kmh 26.53 in898.4 mb - 0.00 in0.0 mm 0.00 in0.0 mm
09:10 PM 52.0°F11.1°C 23.0°F-5.0°C 32% Calm Calm 1.2 mph1.9 kmh 26.53 in898.4 mb - 0.00 in0.0 mm 0.00 in0.0 mm
09:15 PM 52.0°F11.1°C 23.0°F-5.0°C 32% Calm Calm 1.2 mph1.9 kmh 26.53 in898.4 mb - 0.00 in0.0 mm 0.00 in0.0 mm
09:20 PM 52.0°F11.1°C 23.0°F-5.0°C 32% Calm Calm 1.2 mph1.9 kmh 26.53 in898.4 mb - 0.00 in0.0 mm 0.00 in0.0 mm
09:25 PM 52.0°F11.1°C 23.0°F-5.0°C 32% Calm Calm 1.2 mph1.9 kmh 26.53 in898.4 mb - 0.00 in0.0 mm 0.00 in0.0 mm
09:30 PM 52.0°F11.1°C 23.0°F-5.0°C 32% Calm Calm 1.2 mph1.9 kmh 26.53 in898.4 mb - 0.00 in0.0 mm 0.00 in0.0 mm
09:35 PM 52.0°F11.1°C 23.0°F-5.0°C 32% Calm Calm 1.2 mph1.9 kmh 26.53 in898.4 mb - 0.00 in0.0 mm 0.00 in0.0 mm
09:40 PM 52.0°F11.1°C 23.0°F-5.0°C 32% Calm Calm 1.2 mph1.9 kmh 26.53 in898.4 mb - 0.00 in0.0 mm 0.00 in0.0 mm
09:45 PM 52.0°F11.1°C 23.0°F-5.0°C 32% Calm Calm 1.2 mph1.9 kmh 26.53 in898.4 mb - 0.00 in0.0 mm 0.00 in0.0 mm
09:50 PM 52.0°F11.1°C 23.0°F-5.0°C 32% Calm Calm 1.2 mph1.9 kmh 26.53 in898.4 mb - 0.00 in0.0 mm 0.00 in0.0 mm
09:55 PM 52.0°F11.1°C 23.0°F-5.0°C 32% Calm Calm 1.2 mph1.9 kmh 26.53 in898.4 mb - 0.00 in0.0 mm 0.00 in0.0 mm
10:00 PM 52.0°F11.1°C 23.0°F-5.0°C 32% Calm Calm 1.2 mph1.9 kmh 26.53 in898.4 mb - 0.00 in0.0 mm 0.00 in0.0 mm
10:10 PM 52.0°F11.1°C 23.0°F-5.0°C 32% Calm Calm 1.2 mph1.9 kmh 26.53 in898.4 mb - 0.00 in0.0 mm 0.00 in0.0 mm
10:15 PM 52.0°F11.1°C 23.0°F-5.0°C 32% Calm Calm 1.2 mph1.9 kmh 26.53 in898.4 mb - 0.00 in0.0 mm 0.00 in0.0 mm
10:20 PM 52.0°F11.1°C 23.0°F-5.0°C 32% Calm Calm 1.2 mph1.9 kmh 26.53 in898.4 mb - 0.00 in0.0 mm 0.00 in0.0 mm
10:25 PM 52.0°F11.1°C 23.0°F-5.0°C 32% Calm Calm 1.2 mph1.9 kmh 26.53 in898.4 mb - 0.00 in0.0 mm 0.00 in0.0 mm
10:30 PM 52.0°F11.1°C 23.0°F-5.0°C 32% Calm Calm 1.2 mph1.9 kmh 26.53 in898.4 mb - 0.00 in0.0 mm 0.00 in0.0 mm
10:35 PM 52.0°F11.1°C 23.0°F-5.0°C 32% Calm Calm 1.2 mph1.9 kmh 26.53 in898.4 mb - 0.00 in0.0 mm 0.00 in0.0 mm
10:40 PM 52.0°F11.1°C 23.0°F-5.0°C 32% Calm Calm 1.2 mph1.9 kmh 26.53 in898.4 mb - 0.00 in0.0 mm 0.00 in0.0 mm
10:45 PM 52.0°F11.1°C 23.0°F-5.0°C 32% Calm Calm 1.2 mph1.9 kmh 26.53 in898.4 mb - 0.00 in0.0 mm 0.00 in0.0 mm
10:50 PM 52.0°F11.1°C 23.0°F-5.0°C 32% Calm Calm 1.2 mph1.9 kmh 26.53 in898.4 mb - 0.00 in0.0 mm 0.00 in0.0 mm
10:55 PM 52.0°F11.1°C 23.0°F-5.0°C 32% Calm Calm 1.2 mph1.9 kmh 26.53 in898.4 mb - 0.00 in0.0 mm 0.00 in0.0 mm
11:00 PM 52.0°F11.1°C 23.0°F-5.0°C 32% Calm Calm 1.2 mph1.9 kmh 26.53 in898.4 mb - 0.00 in0.0 mm 0.00 in0.0 mm
11:10 PM 52.0°F11.1°C 23.0°F-5.0°C 32% Calm Calm 1.2 mph1.9 kmh 26.53 in898.4 mb - 0.00 in0.0 mm 0.00 in0.0 mm
11:15 PM 52.0°F11.1°C 23.0°F-5.0°C 32% Calm Calm 1.2 mph1.9 kmh 26.53 in898.4 mb - 0.00 in0.0 mm 0.00 in0.0 mm
11:20 PM 52.0°F11.1°C 23.0°F-5.0°C 32% Calm Calm 1.2 mph1.9 kmh 26.53 in898.4 mb - 0.00 in0.0 mm 0.00 in0.0 mm
11:25 PM 52.0°F11.1°C 23.0°F-5.0°C 32% Calm Calm 1.2 mph1.9 kmh 26.53 in898.4 mb - 0.00 in0.0 mm 0.00 in0.0 mm
11:30 PM 52.0°F11.1°C 23.0°F-5.0°C 32% Calm Calm 1.2 mph1.9 kmh 26.53 in898.4 mb - 0.00 in0.0 mm 0.00 in0.0 mm
11:35 PM 52.0°F11.1°C 23.0°F-5.0°C 32% Calm Calm 1.2 mph1.9 kmh 26.53 in898.4 mb - 0.00 in0.0 mm 0.00 in0.0 mm
11:40 PM 52.0°F11.1°C 23.0°F-5.0°C 32% Calm Calm 1.2 mph1.9 kmh 26.53 in898.4 mb - 0.00 in0.0 mm 0.00 in0.0 mm
11:45 PM 52.0°F11.1°C 23.0°F-5.0°C 32% Calm Calm 1.2 mph1.9 kmh 26.53 in898.4 mb - 0.00 in0.0 mm 0.00 in0.0 mm
11:50 PM 52.0°F11.1°C 23.0°F-5.0°C 32% Calm Calm 1.2 mph1.9 kmh 26.53 in898.4 mb - 0.00 in0.0 mm 0.00 in0.0 mm
11:55 PM 52.0°F11.1°C 23.0°F-5.0°C 32% Calm Calm 1.2 mph1.9 kmh 26.53 in898.4 mb - 0.00 in0.0 mm 0.00 in0.0 mm